Time;durP1;ratioP1;P1;durP2;ratioP2;P2;SDS_P1;SDS_P2;PMS_P1;PMS_P2;Temp;Humidity;BMP_temperature;BMP_pressure;BME280_temperature;BME280_humidity;BME280_pressure;Samples;Min_cycle;Max_cycle;Signal;HPM_P1;HPM_P2
2022/10/03 00:02:30;;;;;;;6.18;2.38;;;;;;;12.15;68.24;99314.41;4868305;29;20028;-92
2022/10/03 00:05:37;;;;;;;1.95;1.33;;;;;;;12.30;67.60;99325.91;4894563;29;20526;-91
2022/10/03 00:08:20;;;;;;;2.67;1.42;;;;;;;12.22;67.75;99304.09;4921265;29;20032;-91
2022/10/03 00:11:11;;;;;;;2.67;1.60;;;;;;;12.01;69.11;99314.22;4887041;29;20482;-91
2022/10/03 00:13:56;;;;;;;3.25;1.58;;;;;;;11.90;70.63;99316.19;4890061;29;20027;-91
2022/10/03 00:16:47;;;;;;;3.03;2.03;;;;;;;11.72;71.68;99314.88;4905379;29;20019;-92
2022/10/03 00:19:28;;;;;;;2.22;1.40;;;;;;;11.44;72.59;99301.00;4894429;29;20076;-92
2022/10/03 00:22:03;;;;;;;2.83;1.63;;;;;;;11.44;72.91;99322.56;4869588;29;20016;-91
2022/10/03 00:24:40;;;;;;;2.35;1.60;;;;;;;11.23;73.45;99294.06;4919490;29;20080;-91
2022/10/03 00:27:28;;;;;;;2.15;1.40;;;;;;;11.02;73.74;99267.19;4906433;29;20028;-91
2022/10/03 00:29:55;;;;;;;2.50;1.70;;;;;;;11.15;73.84;99297.34;4873663;29;20020;-92
2022/10/03 00:32:21;;;;;;;3.80;1.90;;;;;;;11.13;73.73;99293.00;4867856;29;20025;-91
2022/10/03 00:34:49;;;;;;;2.25;1.58;;;;;;;11.06;74.32;99294.38;4907340;29;20099;-91
2022/10/03 00:37:21;;;;;;;3.67;1.70;;;;;;;11.13;74.71;99301.09;4921084;29;20079;-92
2022/10/03 00:40:04;;;;;;;5.75;2.38;;;;;;;11.11;74.53;99303.25;4908600;29;20456;-91
2022/10/03 00:42:54;;;;;;;7.22;1.70;;;;;;;11.03;74.26;99292.22;4901876;29;20399;-91
2022/10/03 00:45:41;;;;;;;3.53;2.00;;;;;;;10.94;74.55;99275.81;4918345;29;20490;-91
2022/10/03 00:48:37;;;;;;;2.92;2.00;;;;;;;11.10;73.96;99293.56;4920557;29;20035;-92
2022/10/03 00:51:06;;;;;;;6.95;2.13;;;;;;;11.27;73.27;99293.25;4901524;29;20512;-91
2022/10/03 00:53:47;;;;;;;3.88;1.95;;;;;;;11.33;72.46;99275.16;4904250;29;20055;-91
2022/10/03 00:56:15;;;;;;;3.97;2.30;;;;;;;11.44;72.22;99282.13;4921495;29;20036;-92
2022/10/03 00:58:45;;;;;;;4.90;2.30;;;;;;;11.38;73.20;99293.22;4933837;29;20076;-92
2022/10/03 01:01:39;;;;;;;10.27;3.58;;;;;;;11.24;73.76;99280.31;4886097;29;20092;-91
2022/10/03 01:04:14;;;;;;;8.70;3.65;;;;;;;11.15;73.56;99276.56;4889201;29;20080;-91
2022/10/03 01:07:12;;;;;;;6.18;3.47;;;;;;;11.02;73.61;99264.50;4902495;29;20036;-91
2022/10/03 01:09:43;;;;;;;7.55;3.20;;;;;;;11.01;74.07;99278.22;4882385;29;20067;-91
2022/10/03 01:12:38;;;;;;;5.07;3.05;;;;;;;11.06;74.61;99284.41;4882675;29;20066;-91
2022/10/03 01:15:52;;;;;;;5.78;3.50;;;;;;;11.01;74.46;99281.72;4883707;29;20047;-91
2022/10/03 01:18:23;;;;;;;4.38;2.70;;;;;;;10.87;74.85;99267.22;4896299;29;20134;-91
2022/10/03 01:21:04;;;;;;;5.15;2.70;;;;;;;10.84;74.53;99265.06;4871288;29;20039;-92
2022/10/03 01:23:59;;;;;;;3.90;2.50;;;;;;;11.03;73.73;99274.16;4887674;29;20028;-91
2022/10/03 01:26:47;;;;;;;4.53;2.83;;;;;;;10.96;75.08;99276.38;4904188;29;20043;-92
2022/10/03 01:32:24;;;;;;;5.63;3.08;;;;;;;10.85;75.28;99255.91;4890706;29;20494;-91
2022/10/03 01:35:02;;;;;;;7.50;2.92;;;;;;;10.91;74.72;99271.78;4887315;29;20103;-92
2022/10/03 01:37:30;;;;;;;4.90;2.90;;;;;;;10.96;75.04;99281.75;4869911;29;20096;-91
2022/10/03 01:40:02;;;;;;;3.60;2.28;;;;;;;10.76;74.88;99260.25;4900712;29;20032;-90
2022/10/03 01:42:33;;;;;;;4.38;2.47;;;;;;;10.90;74.29;99283.63;4901391;29;20107;-91
2022/10/03 01:45:11;;;;;;;5.35;3.13;;;;;;;10.83;74.35;99276.91;4931415;29;20060;-91
2022/10/03 01:47:48;;;;;;;7.70;2.70;;;;;;;10.74;74.51;99278.56;4889201;29;20179;-92
2022/10/03 01:50:24;;;;;;;4.30;2.33;;;;;;;10.71;74.46;99286.09;4917448;29;20028;-92
2022/10/03 01:53:02;;;;;;;3.95;2.38;;;;;;;10.72;74.23;99293.09;4903674;29;20407;-91
2022/10/03 01:56:10;;;;;;;5.25;2.60;;;;;;;10.75;74.46;99280.97;4919563;29;20027;-91
2022/10/03 01:59:06;;;;;;;5.53;2.33;;;;;;;10.73;74.42;99277.75;4923461;29;20110;-91
2022/10/03 02:01:54;;;;;;;3.13;2.08;;;;;;;10.64;74.80;99271.28;4903796;29;20039;-91
2022/10/03 02:04:43;;;;;;;3.42;1.88;;;;;;;10.79;73.72;99257.81;4892830;29;20067;-89
2022/10/03 02:07:29;;;;;;;2.55;1.55;;;;;;;11.00;73.13;99280.13;4920267;29;20024;-90
2022/10/03 02:10:56;;;;;;;5.07;1.88;;;;;;;11.08;73.17;99278.72;4905503;29;20035;-89
2022/10/03 02:13:44;;;;;;;3.03;1.70;;;;;;;11.01;72.56;99267.44;4886137;29;20048;-89
2022/10/03 02:16:19;;;;;;;3.97;1.80;;;;;;;11.07;72.65;99274.44;4921514;29;20058;-89
2022/10/03 02:18:48;;;;;;;3.47;1.63;;;;;;;11.17;72.26;99274.41;4904495;29;20405;-89
2022/10/03 02:21:21;;;;;;;3.03;1.70;;;;;;;11.06;72.41;99256.66;4918743;29;20027;-90
2022/10/03 02:23:48;;;;;;;2.72;1.50;;;;;;;11.06;73.01;99260.16;4897868;29;20562;-89
2022/10/03 02:26:44;;;;;;;2.38;1.67;;;;;;;11.19;72.21;99269.56;4884373;29;20024;-89
2022/10/03 02:29:40;;;;;;;3.47;1.75;;;;;;;11.30;71.85;99281.09;4904329;29;20028;-89
2022/10/03 02:32:15;;;;;;;3.45;1.98;;;;;;;11.31;71.80;99280.03;4899988;29;20472;-88
2022/10/03 02:35:13;;;;;;;1.85;1.48;;;;;;;11.37;71.90;99270.84;4916586;29;20395;-88
2022/10/03 02:37:50;;;;;;;4.38;1.90;;;;;;;11.29;71.96;99272.22;4900324;29;20071;-88
2022/10/03 02:40:52;;;;;;;3.97;1.80;;;;;;;11.26;71.86;99271.94;4899682;29;20106;-89
2022/10/03 02:43:33;;;;;;;;;;;;;;;11.29;72.28;99268.72;4916275;29;20024;-89
2022/10/03 02:46:14;;;;;;;3.10;1.52;;;;;;;11.41;70.58;99263.78;4918277;29;19911;-91
2022/10/03 02:49:01;;;;;;;1.70;1.30;;;;;;;11.55;69.78;99268.59;4915182;29;20035;-91
2022/10/03 02:51:45;;;;;;;2.35;1.60;;;;;;;11.46;69.39;99249.50;4884441;29;20091;-92
2022/10/03 02:54:48;;;;;;;2.88;1.70;;;;;;;11.59;70.56;99264.25;4891617;29;20030;-90
2022/10/03 02:57:38;;;;;;;4.13;2.08;;;;;;;11.47;70.51;99256.50;4935296;29;20074;-91
2022/10/03 03:00:16;;;;;;;2.85;1.98;;;;;;;11.40;70.80;99261.38;4904080;29;20028;-91
2022/10/03 03:03:00;;;;;;;2.40;1.77;;;;;;;11.31;70.95;99245.00;4899350;29;20084;-91
2022/10/03 03:05:50;;;;;;;4.03;2.30;;;;;;;11.26;71.25;99242.31;4916808;29;20039;-91
2022/10/03 03:08:24;;;;;;;7.35;2.00;;;;;;;11.35;71.97;99256.00;4904340;29;20479;-91
2022/10/03 03:11:28;;;;;;;4.22;2.20;;;;;;;11.32;71.96;99236.59;4917716;29;20103;-91
2022/10/03 03:14:03;;;;;;;4.95;2.60;;;;;;;11.22;71.87;99231.25;4846353;29;20040;-92
2022/10/03 03:16:38;;;;;;;6.28;3.95;;;;;;;11.08;72.33;99228.38;4911682;29;20062;-91
2022/10/03 03:19:28;;;;;;;6.68;4.00;;;;;;;11.06;73.46;99230.53;4900203;29;20028;-90
2022/10/03 03:21:59;;;;;;;7.70;3.53;;;;;;;10.98;73.40;99241.88;4899941;29;20509;-91
2022/10/03 03:24:40;;;;;;;7.10;3.60;;;;;;;10.95;73.06;99233.53;4908815;29;20100;-90
2022/10/03 03:27:27;;;;;;;11.70;3.28;;;;;;;11.13;72.16;99243.69;4903402;29;20039;-91
2022/10/03 03:30:05;;;;;;;6.15;3.80;;;;;;;11.09;71.48;99229.97;4917831;29;20458;-90
2022/10/03 03:32:36;;;;;;;8.70;3.75;;;;;;;11.25;71.17;99246.09;4886650;29;20031;-91
2022/10/03 03:35:24;;;;;;;5.80;3.22;;;;;;;11.24;70.83;99242.56;4921046;29;20031;-90
2022/10/03 03:38:16;;;;;;;6.50;3.45;;;;;;;11.22;70.73;99252.03;4906307;29;20036;-89
2022/10/03 03:40:44;;;;;;;7.15;3.00;;;;;;;11.27;70.44;99252.00;4898821;29;20071;-89
2022/10/03 03:43:14;;;;;;;5.05;2.90;;;;;;;11.35;70.22;99250.63;4921539;29;20039;-88
2022/10/03 03:45:59;;;;;;;6.38;3.35;;;;;;;11.27;69.88;99227.75;4917374;29;20122;-89
2022/10/03 03:48:50;;;;;;;7.55;2.97;;;;;;;11.33;70.04;99221.25;4903580;29;20484;-89
2022/10/03 03:51:16;;;;;;;6.55;2.50;;;;;;;11.45;69.60;99232.50;4900829;29;20047;-88
2022/10/03 03:53:55;;;;;;;9.23;2.95;;;;;;;11.25;71.73;99221.84;4933989;29;20028;-90
2022/10/03 03:56:25;;;;;;;5.78;2.80;;;;;;;11.00;72.35;99211.94;4886267;29;20384;-90
2022/10/03 03:59:18;;;;;;;42.58;5.10;;;;;;;11.05;73.15;99228.91;4903987;29;20024;-90
2022/10/03 04:01:52;;;;;;;;;;;;;;;11.03;72.88;99214.91;4902929;29;20451;-89
2022/10/03 04:04:26;;;;;;;6.47;2.75;;;;;;;11.15;72.39;99211.91;4924965;29;19922;-88
2022/10/03 04:07:12;;;;;;;4.80;2.75;;;;;;;11.08;72.50;99208.69;4937671;29;20036;-90
2022/10/03 04:10:04;;;;;;;6.05;3.28;;;;;;;10.91;72.63;99188.28;4910751;29;20056;-95
2022/10/03 04:13:01;;;;;;;6.55;3.35;;;;;;;10.82;72.88;99176.47;4904331;29;20028;-96
2022/10/03 04:15:36;;;;;;;4.88;2.97;;;;;;;11.06;72.20;99200.91;4889088;29;20106;-96
2022/10/03 04:21:37;;;;;;;6.30;3.28;;;;;;;11.14;72.75;99215.66;4919442;29;20031;-96
2022/10/03 04:24:37;;;;;;;9.90;3.25;;;;;;;11.00;73.99;99212.78;4921429;29;20036;-95
2022/10/03 04:27:24;;;;;;;7.75;3.45;;;;;;;10.91;74.52;99217.94;4905218;29;20051;-96
2022/10/03 04:30:10;;;;;;;5.68;3.42;;;;;;;10.61;74.66;99191.06;4919799;29;20044;-95
2022/10/03 04:32:56;;;;;;;3.63;2.30;;;;;;;10.65;75.02;99198.31;4879937;29;20028;-89
2022/10/03 04:35:49;;;;;;;4.50;2.83;;;;;;;10.87;74.97;99219.56;4876120;29;20043;-94
2022/10/03 04:38:21;;;;;;;8.05;3.30;;;;;;;10.63;74.79;99197.00;4912971;29;20012;-96
2022/10/03 04:41:19;;;;;;;15.93;4.28;;;;;;;10.76;74.82;99223.34;4883227;29;20065;-96
2022/10/03 04:43:53;;;;;;;11.25;4.90;;;;;;;10.55;74.92;99206.41;4898385;29;20111;-96
2022/10/03 04:46:34;;;;;;;12.30;4.68;;;;;;;10.51;74.94;99195.38;4898059;29;20111;-95
2022/10/03 04:49:17;;;;;;;12.10;4.57;;;;;;;10.74;74.66;99230.88;4895438;29;20025;-96
2022/10/03 04:51:49;;;;;;;10.15;4.47;;;;;;;10.61;75.16;99199.16;4915142;29;20030;-95
2022/10/03 04:54:23;;;;;;;;;;;;;;;10.93;75.10;99236.47;4897950;29;20084;-96
2022/10/03 04:56:57;;;;;;;6.70;3.20;;;;;;;10.86;74.02;99214.44;4886294;29;19918;-94
2022/10/03 04:59:45;;;;;;;10.77;3.35;;;;;;;10.96;74.00;99230.56;4901724;29;20032;-93
2022/10/03 05:02:29;;;;;;;5.55;2.90;;;;;;;11.05;73.47;99231.59;4903587;29;20020;-94
2022/10/03 05:05:15;;;;;;;6.05;2.92;;;;;;;11.00;73.86;99217.31;4875503;29;1258822;-92
2022/10/03 05:08:11;;;;;;;3.83;2.33;;;;;;;10.92;73.48;99207.94;4918006;29;20427;-95
2022/10/03 05:11:11;;;;;;;8.50;2.95;;;;;;;11.17;73.46;99242.06;4910327;29;20066;-93
2022/10/03 05:13:59;;;;;;;5.55;3.22;;;;;;;11.26;73.30;99239.59;4919984;29;20571;-93
2022/10/03 05:16:44;;;;;;;4.60;3.08;;;;;;;11.32;72.64;99233.91;4911632;29;20036;-95
2022/10/03 05:19:28;;;;;;;8.90;3.45;;;;;;;11.46;72.46;99238.72;4901950;29;20028;-94
2022/10/03 05:22:01;;;;;;;4.93;2.70;;;;;;;11.31;72.16;99224.22;4913724;29;20028;-94
2022/10/03 05:25:00;;;;;;;5.72;2.80;;;;;;;11.22;72.34;99214.28;4887284;29;20032;-96
2022/10/03 05:27:34;;;;;;;14.93;8.18;;;;;;;11.19;72.16;99210.25;4922821;29;20040;-94
2022/10/03 05:30:24;;;;;;;11.10;3.50;;;;;;;11.23;72.66;99205.13;4903695;29;20064;-95
2022/10/03 05:32:57;;;;;;;7.78;3.30;;;;;;;11.32;72.81;99209.66;4896726;29;20039;-93
2022/10/03 05:35:50;;;;;;;5.55;3.17;;;;;;;11.75;72.38;99238.81;4890482;29;20035;-96
2022/10/03 05:38:15;;;;;;;5.93;2.95;;;;;;;11.86;71.88;99234.16;4909428;29;20067;-95
2022/10/03 05:40:58;;;;;;;8.80;3.22;;;;;;;11.97;71.31;99245.72;4912564;29;20032;-96
2022/10/03 05:43:35;;;;;;;9.68;7.32;;;;;;;12.02;71.01;99253.78;4897716;29;20032;-94
2022/10/03 05:46:26;;;;;;;12.32;4.88;;;;;;;11.92;70.61;99224.97;4913650;29;20028;-96
2022/10/03 05:49:19;;;;;;;17.73;11.65;;;;;;;12.20;70.45;99250.41;4892611;29;20032;-92
2022/10/03 05:52:06;;;;;;;6.95;3.58;;;;;;;12.14;69.98;99240.75;4902047;29;20028;-95
2022/10/03 05:54:45;;;;;;;8.73;4.20;;;;;;;12.23;69.58;99252.53;4913496;29;20035;-91
2022/10/03 05:57:15;;;;;;;11.10;4.80;;;;;;;12.34;70.34;99253.25;4919501;29;20490;-92
2022/10/03 05:59:47;;;;;;;15.10;7.40;;;;;;;12.34;69.91;99254.06;4897736;29;20028;-92
2022/10/03 06:02:43;;;;;;;17.77;10.05;;;;;;;12.45;69.44;99254.78;4915889;29;20039;-90
2022/10/03 06:05:26;;;;;;;9.40;4.00;;;;;;;12.47;69.15;99238.28;4900224;29;20045;-94
2022/10/03 06:08:10;;;;;;;5.47;3.85;;;;;;;12.47;69.25;99238.28;4892021;29;20043;-96
2022/10/03 06:10:52;;;;;;;43.75;23.38;;;;;;;12.49;67.65;99214.50;4911339;29;20036;-94
2022/10/03 06:13:34;;;;;;;8.35;3.70;;;;;;;12.82;66.84;99230.94;4884899;29;20037;-93
2022/10/03 06:16:14;;;;;;;;;;;;;;;12.97;67.54;99241.59;4900136;29;20036;-92
2022/10/03 06:18:50;;;;;;;6.88;2.75;;;;;;;12.87;66.22;99226.28;4883710;29;20390;-94
2022/10/03 06:21:22;;;;;;;5.68;2.40;;;;;;;13.07;64.73;99241.47;4898712;29;20036;-92
2022/10/03 06:24:24;;;;;;;5.68;2.70;;;;;;;13.17;64.73;99256.75;4885524;29;20039;-88
2022/10/03 06:27:28;;;;;;;7.15;3.38;;;;;;;13.43;63.92;99251.88;4898615;29;20104;-91
2022/10/03 06:30:25;;;;;;;12.57;4.75;;;;;;;13.26;64.62;99230.69;4882733;29;20066;-91
2022/10/03 06:33:16;;;;;;;5.57;3.80;;;;;;;13.56;64.85;99249.56;4888612;29;20035;-94
2022/10/03 06:35:53;;;;;;;22.15;8.45;;;;;;;13.59;65.63;99244.34;4904621;29;20043;-91
2022/10/03 06:39:00;;;;;;;26.60;8.27;;;;;;;13.58;65.65;99253.56;4934143;29;20043;-91
2022/10/03 06:42:31;;;;;;;8.95;4.13;;;;;;;13.62;66.61;99248.38;4937544;29;20028;-95
2022/10/03 06:51:16;;;;;;;9.18;4.10;;;;;;;13.48;66.80;99257.19;4953565;29;20119;-94
2022/10/03 06:54:27;;;;;;;7.47;3.85;;;;;;;13.44;67.01;99272.41;4955663;29;20007;-96
2022/10/03 06:57:41;;;;;;;9.40;4.80;;;;;;;13.62;66.86;99262.72;5137905;23;20062;-95
2022/10/03 07:01:03;;;;;;;7.32;2.97;;;;;;;13.73;66.53;99264.16;4935435;29;20043;-96
2022/10/03 07:19:19;;;;;;;11.30;4.97;;;;;;;14.33;65.61;99277.09;4876228;29;20052;-94
2022/10/03 07:22:03;;;;;;;9.40;4.40;;;;;;;14.40;64.81;99275.91;4922756;29;20088;-95
2022/10/03 07:25:24;;;;;;;17.90;6.75;;;;;;;14.26;64.39;99252.31;4925025;29;20124;-96
2022/10/03 07:28:20;;;;;;;7.90;3.97;;;;;;;14.39;64.14;99290.56;4922753;29;20032;-95
2022/10/03 07:31:04;;;;;;;8.40;3.33;;;;;;;14.51;64.65;99282.78;4926220;29;20028;-95
2022/10/03 07:34:14;;;;;;;9.57;4.70;;;;;;;14.66;64.61;99285.25;4909611;29;20131;-96
2022/10/03 07:40:10;;;;;;;7.28;3.65;;;;;;;14.69;66.29;99292.81;4825567;23;20083;-90
2022/10/03 07:42:37;;;;;;;10.90;3.85;;;;;;;14.72;67.28;99292.19;4874419;29;20060;-90
2022/10/03 07:45:30;;;;;;;9.23;3.75;;;;;;;14.71;66.14;99285.19;4908495;29;20024;-88
2022/10/03 07:48:13;;;;;;;;;;;;;;;14.85;67.43;99296.03;4874746;29;20028;-95
2022/10/03 07:51:36;;;;;;;8.75;3.25;;;;;;;14.94;64.95;99299.66;4902827;29;19911;-90
2022/10/03 07:54:48;;;;;;;7.50;3.42;;;;;;;14.95;66.17;99300.47;4873023;29;20519;-89
2022/10/03 07:57:44;;;;;;;5.30;3.37;;;;;;;14.96;64.73;99288.50;4788868;29;20553;-89
2022/10/03 08:00:21;;;;;;;9.48;3.40;;;;;;;14.97;64.55;99303.69;4866557;29;20368;-90
2022/10/03 08:03:21;;;;;;;3.72;1.55;;;;;;;15.01;60.11;99288.44;4884768;29;20493;-95
2022/10/03 08:06:44;;;;;;;1.98;1.20;;;;;;;15.03;60.45;99286.22;4860623;29;20139;-91
2022/10/03 08:13:03;;;;;;;3.10;1.70;;;;;;;14.87;67.94;99298.44;4821374;29;20038;-91
2022/10/03 08:16:01;;;;;;;3.80;1.85;;;;;;;14.71;69.22;99303.31;4867760;29;20464;-92
2022/10/03 08:18:54;;;;;;;4.60;1.30;;;;;;;14.57;71.70;99294.34;4860578;29;20432;-92
2022/10/03 08:21:37;;;;;;;8.13;3.05;;;;;;;14.25;73.32;99258.00;4842330;29;20052;-94
2022/10/03 08:27:51;;;;;;;4.53;2.15;;;;;;;14.27;72.56;99270.16;4847759;29;20067;-91
2022/10/03 08:30:37;;;;;;;4.65;1.55;;;;;;;14.38;73.11;99294.34;4861937;29;20045;-91
2022/10/03 08:33:40;;;;;;;4.78;1.98;;;;;;;13.95;77.08;99268.22;4864423;29;20037;-91
2022/10/03 08:36:49;;;;;;;4.85;2.10;;;;;;;14.19;78.08;99306.00;4852331;29;20419;-92
2022/10/03 08:45:50;;;;;;;4.78;2.47;;;;;;;14.39;77.65;99291.38;5551493;23;20064;-93
2022/10/03 08:48:53;;;;;;;3.95;2.30;;;;;;;14.43;78.27;99286.16;4887675;29;20046;-92
2022/10/03 08:55:16;;;;;;;4.77;3.50;;;;;;;14.35;77.31;99304.69;4915010;29;20047;-92
2022/10/03 08:58:00;;;;;;;5.90;3.17;;;;;;;14.38;75.34;99302.50;4900510;29;20024;-92
2022/10/03 09:00:53;;;;;;;10.50;6.43;;;;;;;14.30;78.29;99301.28;4916996;29;20030;-92
2022/10/03 09:07:35;;;;;;;;;;;;;;;;;;;;;
2022/10/03 09:14:06;;;;;;;4.13;3.03;;;;;;;14.41;76.76;99289.16;4879622;29;20036;-92
2022/10/03 09:16:51;;;;;;;9.20;6.57;;;;;;;14.26;78.51;99270.47;4885856;29;20045;-94
2022/10/03 09:19:19;;;;;;;;;;;;;;;14.47;76.51;99292.59;4855741;29;20043;-92
2022/10/03 09:35:55;;;;;;;7.82;2.75;;;;;;;14.96;75.75;99277.66;4861741;29;20388;-91
2022/10/03 09:45:33;;;;;;;5.38;2.42;;;;;;;15.28;75.92;99284.13;4838122;29;20516;-90
2022/10/03 09:48:09;;;;;;;5.57;2.20;;;;;;;15.25;76.17;99268.44;4849314;29;20474;-91
2022/10/03 09:51:27;;;;;;;4.28;3.83;;;;;;;15.29;74.54;99242.31;4866661;29;20166;-91
2022/10/03 09:54:11;;;;;;;5.43;2.55;;;;;;;15.52;74.07;99271.16;4827723;29;20046;-90
2022/10/03 10:06:40;;;;;;;;;;;;;;;15.41;74.29;99258.88;4859297;29;20002;-96
2022/10/03 10:09:30;;;;;;;1.92;1.38;;;;;;;15.40;72.67;99254.56;4857535;29;19920;-96
2022/10/03 10:19:38;;;;;;;5.22;1.42;;;;;;;15.59;71.56;99259.88;4837361;29;20065;-96
2022/10/03 10:26:11;;;;;;;4.68;2.03;;;;;;;15.12;75.80;99254.56;5471142;23;20032;-96
2022/10/03 10:29:02;;;;;;;2.78;1.67;;;;;;;15.27;75.26;99258.91;4904909;29;20057;-96
2022/10/03 10:32:08;;;;;;;6.45;3.20;;;;;;;15.35;74.96;99265.53;4890887;29;20040;-95
2022/10/03 10:34:53;;;;;;;40.80;22.35;;;;;;;15.33;74.44;99257.69;4902060;29;20063;-95
2022/10/03 10:37:43;;;;;;;12.02;9.15;;;;;;;15.31;74.81;99256.38;4889784;29;20052;-96
2022/10/03 10:40:27;;;;;;;1.95;1.10;;;;;;;15.19;71.70;99248.78;4901483;29;20403;-95
2022/10/03 10:43:05;;;;;;;1.77;1.10;;;;;;;15.19;72.48;99243.34;4887335;29;20025;-94
2022/10/03 10:45:44;;;;;;;9.43;5.68;;;;;;;15.29;74.19;99228.75;4888493;29;20032;-96
2022/10/03 10:48:37;;;;;;;4.60;2.67;;;;;;;15.36;72.51;99248.16;4855812;29;20028;-95
2022/10/03 10:51:32;;;;;;;4.70;3.53;;;;;;;15.44;73.16;99219.47;4881331;29;20029;-93
2022/10/03 10:54:23;;;;;;;2.45;1.75;;;;;;;15.70;70.88;99225.97;4831292;29;20050;-93
2022/10/03 10:57:16;;;;;;;1.55;1.08;;;;;;;15.95;69.43;99230.03;4881664;29;20038;-94
2022/10/03 11:00:10;;;;;;;4.03;2.00;;;;;;;16.11;71.24;99235.91;4899553;29;20032;-92
2022/10/03 11:02:57;;;;;;;5.75;2.30;;;;;;;16.48;69.48;99244.00;4852292;29;20119;-92
2022/10/03 11:05:33;;;;;;;2.72;1.40;;;;;;;16.54;69.15;99246.25;4881222;29;20032;-95
2022/10/03 11:08:13;;;;;;;1.92;1.40;;;;;;;16.68;66.78;99235.28;4881356;29;20555;-92
2022/10/03 11:11:09;;;;;;;2.25;1.30;;;;;;;16.77;67.23;99235.34;4879900;29;20055;-91
2022/10/03 11:13:56;;;;;;;2.28;1.40;;;;;;;16.90;67.12;99236.38;4878568;29;20063;-93
2022/10/03 11:17:08;;;;;;;8.38;1.70;;;;;;;16.76;65.23;99185.59;4868365;29;20480;-94
2022/10/03 11:20:10;;;;;;;9.70;2.72;;;;;;;16.88;63.25;99230.47;4885840;29;20044;-90
2022/10/03 11:23:06;;;;;;;1.35;0.95;;;;;;;17.09;66.03;99222.53;4871336;29;20037;-95
2022/10/03 11:25:49;;;;;;;3.75;1.00;;;;;;;17.27;64.64;99218.75;4852546;29;20068;-95
2022/10/03 11:28:53;;;;;;;5.28;1.45;;;;;;;17.27;65.25;99212.50;4872583;29;20057;-96
2022/10/03 11:32:21;;;;;;;;;;;;;;;;;;;;;
2022/10/03 11:35:21;;;;;;;3.33;1.00;;;;;;;17.42;61.53;99203.09;4884926;29;20081;-96
2022/10/03 11:38:27;;;;;;;3.08;1.30;;;;;;;17.38;59.34;99200.19;4871509;29;20028;-92
2022/10/03 11:41:20;;;;;;;2.75;0.90;;;;;;;17.38;60.58;99209.16;4791408;29;20097;-92
2022/10/03 11:44:26;;;;;;;2.30;1.02;;;;;;;17.48;58.74;99221.66;4870590;29;20404;-96
2022/10/03 11:47:09;;;;;;;0.95;0.70;;;;;;;17.23;57.86;99206.88;4878682;29;20096;-96
2022/10/03 11:50:07;;;;;;;4.30;3.20;;;;;;;17.13;61.25;99204.47;5207546;24;20579;-96
2022/10/03 11:56:11;;;;;;;4.32;2.17;;;;;;;17.17;62.65;99187.19;5045958;23;20056;-94
2022/10/03 11:59:22;;;;;;;4.68;0.93;;;;;;;17.27;61.39;99172.47;4879483;29;20013;-95
2022/10/03 12:11:45;;;;;;;1.52;0.80;;;;;;;17.55;58.25;99174.91;4932574;29;20114;-95
2022/10/03 12:14:17;;;;;;;3.58;1.60;;;;;;;17.48;59.80;99191.72;4911832;29;20028;-96
2022/10/03 12:17:34;;;;;;;8.07;2.58;;;;;;;17.42;60.32;99171.22;4916962;29;20026;-96
2022/10/03 12:22:57;;;;;;;2.40;0.88;;;;;;;17.43;57.97;99151.06;4932877;28;20067;-96
2022/10/03 12:25:39;;;;;;;1.95;0.85;;;;;;;17.55;57.71;99134.06;4885311;29;20055;-96
2022/10/03 12:28:17;;;;;;;;;;;;;;;17.95;56.05;99172.03;4883132;29;20048;-94
2022/10/03 12:34:37;;;;;;;1.42;0.90;;;;;;;18.05;55.86;99154.56;4858613;29;20044;-96
2022/10/03 12:37:29;;;;;;;4.50;1.65;;;;;;;18.01;58.28;99159.84;4841871;29;20065;-96
2022/10/03 12:40:25;;;;;;;4.47;1.50;;;;;;;17.98;57.34;99138.72;4840566;29;20047;-95
2022/10/03 12:43:30;;;;;;;10.93;3.05;;;;;;;18.26;56.93;99157.38;4794156;29;20061;-96
2022/10/03 12:46:44;;;;;;;2.58;1.55;;;;;;;18.17;53.75;99127.44;4954366;23;20117;-96
2022/10/03 12:49:59;;;;;;;4.15;2.88;;;;;;;18.17;52.57;99158.22;4959711;28;20115;-96
2022/10/03 13:23:31;;;;;;;1.10;0.90;;;;;;;17.86;51.09;99155.69;5027210;23;20063;-94
2022/10/03 13:26:17;;;;;;;1.80;1.15;;;;;;;17.70;51.30;99128.16;4933621;29;20059;-96
2022/10/03 13:32:15;;;;;;;1.27;1.02;;;;;;;17.80;50.03;99151.50;4948886;28;20042;-95
2022/10/03 13:38:46;;;;;;;1.55;1.10;;;;;;;17.60;47.87;99155.69;4959623;23;20071;-96
2022/10/03 13:41:57;;;;;;;1.42;0.98;;;;;;;17.52;48.41;99153.78;4933102;29;20044;-96
2022/10/03 13:44:55;;;;;;;2.22;1.10;;;;;;;17.43;48.91;99153.78;4874780;29;20033;-96
2022/10/03 13:51:20;;;;;;;1.70;0.93;;;;;;;17.16;47.75;99144.78;5528086;23;20051;-94
2022/10/03 14:05:35;;;;;;;1.40;0.82;;;;;;;16.91;50.14;99142.78;5037318;23;20063;-95
2022/10/03 14:08:23;;;;;;;1.23;0.95;;;;;;;16.99;49.47;99152.09;4905228;29;20124;-96
2022/10/03 14:11:11;;;;;;;2.25;0.80;;;;;;;16.99;49.23;99152.88;4928706;29;20034;-96
2022/10/03 14:13:55;;;;;;;5.38;2.20;;;;;;;17.04;49.76;99146.53;4910591;29;20031;-96
2022/10/03 14:16:37;;;;;;;4.25;2.08;;;;;;;16.95;49.99;99122.81;4909278;29;20028;-96
2022/10/03 14:19:58;;;;;;;2.38;1.25;;;;;;;17.11;48.27;99152.28;5138009;24;20076;-96
2022/10/03 14:29:29;;;;;;;3.28;0.93;;;;;;;17.08;47.93;99153.72;4944293;29;20526;-95
2022/10/03 14:32:33;;;;;;;1.30;0.88;;;;;;;17.16;48.22;99166.56;4916016;29;20039;-96
2022/10/03 14:35:33;;;;;;;3.25;0.85;;;;;;;17.03;48.76;99148.41;4899180;29;20053;-96
2022/10/03 14:38:56;;;;;;;3.95;1.45;;;;;;;16.92;50.40;99152.56;4883269;29;20060;-91
2022/10/03 14:41:19;;;;;;;2.60;2.08;;;;;;;16.81;50.83;99149.34;4859754;29;20037;-92
2022/10/03 14:43:54;;;;;;;6.53;2.30;;;;;;;16.80;50.60;99146.91;4870231;29;20044;-92
2022/10/03 14:46:32;;;;;;;2.40;1.40;;;;;;;16.81;49.96;99148.53;4900982;29;20122;-92
2022/10/03 14:49:06;;;;;;;4.00;2.22;;;;;;;16.68;50.32;99142.06;4890750;29;20391;-91
2022/10/03 14:51:36;;;;;;;3.35;2.03;;;;;;;16.52;49.33;99133.53;4919892;29;20462;-92
2022/10/03 14:54:04;;;;;;;2.40;1.30;;;;;;;16.59;50.61;99147.47;4903694;29;20119;-93
2022/10/03 14:56:39;;;;;;;3.83;1.23;;;;;;;16.70;49.52;99156.13;4887580;29;20035;-93
2022/10/03 14:59:16;;;;;;;3.17;1.00;;;;;;;16.72;49.27;99153.91;4905780;29;20035;-93
2022/10/03 15:01:49;;;;;;;5.63;2.67;;;;;;;16.72;49.35;99154.69;4904202;29;20458;-90
2022/10/03 15:04:29;;;;;;;1.20;0.80;;;;;;;16.88;48.72;99171.44;4902290;29;20090;-91
2022/10/03 15:07:01;;;;;;;2.70;1.48;;;;;;;16.73;49.75;99160.97;4902434;29;20031;-91
2022/10/03 15:09:39;;;;;;;1.25;0.90;;;;;;;16.75;48.89;99178.56;4903726;29;20036;-90
2022/10/03 15:12:23;;;;;;;1.20;0.98;;;;;;;16.51;48.80;99154.47;4918350;29;20371;-92
2022/10/03 15:25:53;;;;;;;1.60;1.13;;;;;;;16.55;48.17;99184.53;4876392;29;20132;-92
2022/10/03 15:28:21;;;;;;;5.57;1.00;;;;;;;16.62;47.32;99189.53;4842584;29;20038;-92
2022/10/03 15:30:53;;;;;;;1.63;1.00;;;;;;;16.34;47.99;99168.78;4899787;29;20040;-92
2022/10/03 15:33:46;;;;;;;1.35;0.90;;;;;;;16.41;49.77;99189.25;4884443;29;20029;-92
2022/10/03 15:36:14;;;;;;;2.33;1.15;;;;;;;16.16;49.86;99184.19;4869866;29;20775;-91
2022/10/03 15:38:51;;;;;;;;;;;;;;;;;;;;;
2022/10/03 15:42:06;;;;;;;2.90;0.95;;;;;;;16.08;48.95;99176.78;4885105;29;20036;-91
2022/10/03 15:44:53;;;;;;;4.35;2.53;;;;;;;16.12;49.07;99185.09;4879526;29;20040;-92
2022/10/03 15:47:55;;;;;;;3.25;1.30;;;;;;;15.97;50.60;99180.84;4848547;29;20037;-92
2022/10/03 15:50:57;;;;;;;2.65;0.90;;;;;;;16.19;48.17;99193.63;4870812;29;20496;-93
2022/10/03 15:56:40;;;;;;;1.45;0.88;;;;;;;15.93;49.32;99177.94;4842899;29;20049;-91
2022/10/03 15:59:07;;;;;;;1.85;1.20;;;;;;;16.00;49.71;99201.16;4847311;29;20416;-93
2022/10/03 16:01:45;;;;;;;2.60;0.80;;;;;;;16.09;48.58;99210.97;4831712;29;20041;-92
2022/10/03 16:04:20;;;;;;;1.35;1.20;;;;;;;16.09;48.60;99216.41;4846389;29;20147;-91
2022/10/03 16:06:51;;;;;;;2.05;1.20;;;;;;;16.06;48.93;99221.63;4862450;29;20034;-91
2022/10/03 16:10:13;;;;;;;3.50;1.23;;;;;;;16.07;50.83;99225.97;4863244;29;20124;-93
2022/10/03 16:13:06;;;;;;;3.25;1.25;;;;;;;15.98;49.82;99235.94;4845385;29;20166;-91
2022/10/03 16:16:09;;;;;;;3.35;1.00;;;;;;;15.94;48.23;99225.72;4859385;29;20037;-90
2022/10/03 16:19:16;;;;;;;0.98;0.80;;;;;;;16.04;48.70;99232.84;4864049;29;20578;-91
2022/10/03 16:22:14;;;;;;;3.28;0.90;;;;;;;15.91;48.75;99233.66;4880226;29;20052;-92
2022/10/03 16:24:58;;;;;;;2.58;1.00;;;;;;;15.73;49.59;99216.44;4855869;29;20041;-93